Terminal Aerodrome Forecast
Issued by NWS

Home | Current Version | Previous Version | Text Only | Print | Product List | Glossary On
Versions: 1 2 3 4 5 6 7 8 9 10 11 12 13 14 15 16 17
000
FTUS45 KSLC 191451 AAB
TAFBCE
TAF AMD
KBCE 191451Z 1915/2012 23018G28KT 2SM -SN BR SCT007 BKN020
      TEMPO 1915/1916 1/2SM SN FZFG BKN007
     FM192000 28014G22KT P6SM VCSH BKN025 OVC040
     FM200200 31010KT P6SM SCT025 BKN040=

USA.gov is the U.S. government's official web portal to all federal, state and local government web resources and services.